Time;durP1;ratioP1;P1;durP2;ratioP2;P2;SDS_P1;SDS_P2;PMS_P1;PMS_P2;Temp;Humidity;BMP_temperature;BMP_pressure;BME280_temperature;BME280_humidity;BME280_pressure;Samples;Min_cycle;Max_cycle;Signal;HPM_P1;HPM_P2
2022/04/24 00:00:37;;;;;;;23.90;13.13;;;;;;;;;;5036112;28;20502;-71
2022/04/24 00:03:03;;;;;;;22.75;12.30;;;;;;;;;;5039974;28;20080;-71
2022/04/24 00:05:28;;;;;;;26.52;13.73;;;;;;;;;;5036952;28;20498;-71
2022/04/24 00:07:53;;;;;;;24.70;13.25;;;;;;;;;;5035478;28;20029;-71
2022/04/24 00:10:19;;;;;;;24.95;13.07;;;;;;;;;;5035329;28;20511;-71
2022/04/24 00:12:44;;;;;;;25.08;12.50;;;;;;;;;;5043535;28;20097;-70
2022/04/24 00:15:10;;;;;;;24.88;13.35;;;;;;;;;;5032369;28;20613;-71
2022/04/24 00:17:37;;;;;;;25.38;13.27;;;;;;;;;;5034594;28;20128;-71
2022/04/24 00:20:02;;;;;;;25.40;13.05;;;;;;;;;;5040763;28;20116;-71
2022/04/24 00:22:28;;;;;;;23.23;12.35;;;;;;;;;;5030211;28;20124;-71
2022/04/24 00:24:53;;;;;;;24.77;13.20;;;;;;;;;;5029476;28;20507;-71
2022/04/24 00:27:18;;;;;;;25.27;12.15;;;;;;;;;;5041112;28;20049;-71
2022/04/24 00:29:44;;;;;;;25.25;13.18;;;;;;;;;;5044236;28;20036;-70
2022/04/24 00:32:09;;;;;;;25.50;12.27;;;;;;;;;;5039073;28;20029;-70
2022/04/24 00:34:35;;;;;;;24.13;12.75;;;;;;;;;;5034538;28;20071;-71
2022/04/24 00:37:00;;;;;;;25.02;12.82;;;;;;;;;;5035636;28;20036;-70
2022/04/24 00:39:26;;;;;;;22.88;11.65;;;;;;;;;;5042088;28;20033;-70
2022/04/24 00:41:52;;;;;;;23.48;12.93;;;;;;;;;;5043758;28;20048;-70
2022/04/24 00:44:18;;;;;;;25.38;12.88;;;;;;;;;;5036577;28;20045;-70
2022/04/24 00:46:55;;;;;;;24.95;12.82;;;;;;;;;;5044091;28;20090;-70
2022/04/24 00:49:21;;;;;;;22.38;12.48;;;;;;;;;;5042117;28;20034;-71
2022/04/24 00:51:46;;;;;;;29.08;12.25;;;;;;;;;;5050067;28;20096;-71
2022/04/24 00:54:12;;;;;;;27.13;13.30;;;;;;;;;;5044663;28;20067;-71
2022/04/24 00:56:40;;;;;;;23.58;13.05;;;;;;;;;;5046710;28;20035;-71
2022/04/24 00:59:08;;;;;;;25.13;12.43;;;;;;;;;;5038448;28;20115;-70
2022/04/24 01:01:34;;;;;;;23.30;12.32;;;;;;;;;;5041736;28;20027;-70
2022/04/24 01:04:02;;;;;;;23.90;12.77;;;;;;;;;;5047327;28;20792;-71
2022/04/24 01:06:36;;;;;;;22.35;11.98;;;;;;;;;;5045323;28;20035;-71
2022/04/24 01:09:19;;;;;;;23.48;13.07;;;;;;;;;;5042211;28;20041;-70
2022/04/24 01:11:55;;;;;;;23.80;12.65;;;;;;;;;;5050326;28;20585;-70
2022/04/24 01:14:28;;;;;;;22.48;11.45;;;;;;;;;;5043046;28;20123;-71
2022/04/24 01:16:54;;;;;;;23.02;12.23;;;;;;;;;;5044520;28;20025;-70
2022/04/24 01:19:20;;;;;;;25.55;12.60;;;;;;;;;;5045180;28;20041;-71
2022/04/24 01:21:47;;;;;;;22.90;12.75;;;;;;;;;;5034814;28;20116;-70
2022/04/24 01:24:16;;;;;;;22.95;12.63;;;;;;;;;;5037360;28;20132;-71
2022/04/24 01:26:41;;;;;;;22.88;12.25;;;;;;;;;;5048000;28;20537;-70
2022/04/24 01:29:06;;;;;;;23.95;12.52;;;;;;;;;;5043614;28;20021;-71
2022/04/24 01:31:32;;;;;;;25.80;12.90;;;;;;;;;;5033696;28;20079;-70
2022/04/24 01:33:58;;;;;;;22.70;11.07;;;;;;;;;;5035705;28;20114;-71
2022/04/24 01:36:23;;;;;;;21.80;11.68;;;;;;;;;;5046279;28;20037;-70
2022/04/24 01:38:49;;;;;;;20.40;11.68;;;;;;;;;;5048953;28;20044;-70
2022/04/24 01:41:14;;;;;;;22.17;11.75;;;;;;;;;;5035898;28;20025;-70
2022/04/24 01:43:41;;;;;;;25.17;11.90;;;;;;;;;;5030915;28;20738;-71
2022/04/24 01:46:08;;;;;;;23.70;11.73;;;;;;;;;;5028564;28;20041;-71
2022/04/24 01:48:33;;;;;;;20.83;12.00;;;;;;;;;;5033331;28;20115;-71
2022/04/24 01:51:00;;;;;;;22.52;11.75;;;;;;;;;;5038563;28;20065;-70
2022/04/24 01:53:25;;;;;;;20.63;11.52;;;;;;;;;;5037036;28;20037;-71
2022/04/24 01:55:51;;;;;;;20.70;10.90;;;;;;;;;;5040707;28;20029;-71
2022/04/24 01:58:16;;;;;;;21.20;11.63;;;;;;;;;;5041178;28;20051;-70
2022/04/24 02:00:41;;;;;;;21.88;12.00;;;;;;;;;;5034447;28;20032;-71
2022/04/24 02:03:06;;;;;;;22.27;10.88;;;;;;;;;;5044959;28;20061;-71
2022/04/24 02:05:32;;;;;;;26.10;12.27;;;;;;;;;;5038786;28;20049;-70
2022/04/24 02:07:58;;;;;;;20.85;10.65;;;;;;;;;;5040137;28;20099;-71
2022/04/24 02:10:23;;;;;;;24.65;11.55;;;;;;;;;;5049061;28;20406;-70
2022/04/24 02:12:48;;;;;;;20.75;11.07;;;;;;;;;;5044005;28;20033;-70
2022/04/24 02:15:14;;;;;;;21.55;10.80;;;;;;;;;;5037028;28;20041;-70
2022/04/24 02:17:39;;;;;;;19.50;10.13;;;;;;;;;;5037569;28;20036;-70
2022/04/24 02:20:05;;;;;;;17.83;9.27;;;;;;;;;;5039202;28;20025;-70
2022/04/24 02:22:34;;;;;;;17.88;10.60;;;;;;;;;;5037986;28;20037;-70
2022/04/24 02:25:00;;;;;;;17.27;9.82;;;;;;;;;;5034457;28;20036;-70
2022/04/24 02:27:26;;;;;;;18.58;10.10;;;;;;;;;;5044523;28;20110;-70
2022/04/24 02:29:51;;;;;;;17.92;9.60;;;;;;;;;;5043127;28;20072;-70
2022/04/24 02:32:17;;;;;;;17.83;9.65;;;;;;;;;;5041702;28;20040;-70
2022/04/24 02:34:42;;;;;;;17.05;9.40;;;;;;;;;;5044871;28;20029;-70
2022/04/24 02:37:07;;;;;;;17.10;9.35;;;;;;;;;;5043576;28;20029;-70
2022/04/24 02:39:33;;;;;;;17.60;8.90;;;;;;;;;;5042685;28;20414;-70
2022/04/24 02:41:58;;;;;;;14.00;8.68;;;;;;;;;;5047204;28;20041;-70
2022/04/24 02:44:23;;;;;;;16.75;8.60;;;;;;;;;;5048587;28;20041;-70
2022/04/24 02:46:49;;;;;;;16.85;8.77;;;;;;;;;;5048522;28;20041;-70
2022/04/24 02:49:14;;;;;;;16.98;8.50;;;;;;;;;;5042703;28;20088;-70
2022/04/24 02:51:39;;;;;;;18.67;9.55;;;;;;;;;;5038281;28;20506;-71
2022/04/24 02:54:05;;;;;;;15.32;8.63;;;;;;;;;;5048478;28;20040;-70
2022/04/24 02:56:30;;;;;;;15.88;8.40;;;;;;;;;;5044904;28;20068;-70
2022/04/24 02:58:55;;;;;;;15.63;8.35;;;;;;;;;;5046742;28;20029;-70
2022/04/24 03:01:22;;;;;;;12.95;7.57;;;;;;;;;;5037626;28;20044;-70
2022/04/24 03:03:49;;;;;;;15.00;7.43;;;;;;;;;;5045660;28;20076;-70
2022/04/24 03:06:15;;;;;;;15.85;7.30;;;;;;;;;;5047070;28;20037;-70
2022/04/24 03:08:41;;;;;;;14.95;7.60;;;;;;;;;;5046990;28;20124;-70
2022/04/24 03:11:06;;;;;;;12.98;7.68;;;;;;;;;;5047955;28;20112;-70
2022/04/24 03:13:31;;;;;;;13.75;6.97;;;;;;;;;;5036854;28;20037;-70
2022/04/24 03:15:57;;;;;;;17.75;7.43;;;;;;;;;;5040601;28;20511;-70
2022/04/24 03:18:22;;;;;;;12.65;7.25;;;;;;;;;;5041162;28;20064;-70
2022/04/24 03:20:47;;;;;;;10.98;6.82;;;;;;;;;;5045832;28;20145;-70
2022/04/24 03:23:13;;;;;;;12.45;6.50;;;;;;;;;;5037277;28;20087;-71
2022/04/24 03:25:38;;;;;;;12.18;7.07;;;;;;;;;;5036175;28;20036;-70
2022/04/24 03:28:04;;;;;;;12.10;6.47;;;;;;;;;;5034652;28;20041;-70
2022/04/24 03:30:29;;;;;;;13.27;7.28;;;;;;;;;;5047157;28;20045;-70
2022/04/24 03:32:54;;;;;;;11.45;6.38;;;;;;;;;;5041237;28;20276;-70
2022/04/24 03:35:20;;;;;;;11.57;6.55;;;;;;;;;;5046740;28;20033;-70
2022/04/24 03:37:45;;;;;;;11.55;6.32;;;;;;;;;;5036551;28;20036;-70
2022/04/24 03:40:11;;;;;;;11.57;6.57;;;;;;;;;;5043918;28;20461;-70
2022/04/24 03:42:36;;;;;;;13.38;6.30;;;;;;;;;;5034747;28;20131;-70
2022/04/24 03:45:04;;;;;;;14.18;6.32;;;;;;;;;;5047428;28;20039;-70
2022/04/24 03:47:29;;;;;;;11.50;6.50;;;;;;;;;;5046280;28;20047;-70
2022/04/24 03:49:55;;;;;;;12.93;6.20;;;;;;;;;;5040015;28;20527;-70
2022/04/24 03:52:20;;;;;;;10.93;5.60;;;;;;;;;;5046133;28;20033;-70
2022/04/24 03:54:46;;;;;;;14.20;6.40;;;;;;;;;;5040875;28;20036;-70
2022/04/24 03:57:12;;;;;;;11.63;5.95;;;;;;;;;;5042771;28;20508;-70
2022/04/24 03:59:37;;;;;;;10.27;5.78;;;;;;;;;;5037540;28;20029;-70
2022/04/24 04:02:03;;;;;;;10.25;5.88;;;;;;;;;;5037401;28;20021;-71
2022/04/24 04:04:29;;;;;;;10.32;6.18;;;;;;;;;;5044349;28;20053;-70
2022/04/24 04:06:55;;;;;;;15.25;6.68;;;;;;;;;;5039998;28;20565;-70
2022/04/24 04:09:20;;;;;;;12.60;5.85;;;;;;;;;;5039442;28;20036;-70
2022/04/24 04:11:45;;;;;;;11.07;6.05;;;;;;;;;;5046747;28;20148;-70
2022/04/24 04:14:11;;;;;;;9.60;6.15;;;;;;;;;;5034757;28;20030;-70
2022/04/24 04:16:37;;;;;;;10.50;5.90;;;;;;;;;;5039323;28;20061;-70
2022/04/24 04:19:02;;;;;;;10.38;6.38;;;;;;;;;;5041896;28;20581;-71
2022/04/24 04:21:27;;;;;;;9.73;5.60;;;;;;;;;;5047100;28;20090;-70
2022/04/24 04:23:53;;;;;;;11.52;6.00;;;;;;;;;;5036780;28;20106;-71
2022/04/24 04:26:18;;;;;;;9.90;5.90;;;;;;;;;;5038494;28;20526;-71
2022/04/24 04:28:45;;;;;;;9.80;5.95;;;;;;;;;;5041989;28;20029;-70
2022/04/24 04:31:14;;;;;;;9.60;5.82;;;;;;;;;;5046027;28;20051;-70
2022/04/24 04:33:40;;;;;;;11.00;6.40;;;;;;;;;;5034709;28;20072;-70
2022/04/24 04:36:05;;;;;;;9.98;5.65;;;;;;;;;;5041788;28;20057;-71
2022/04/24 04:38:31;;;;;;;11.93;6.03;;;;;;;;;;5044532;28;20044;-70
2022/04/24 04:40:56;;;;;;;10.52;5.72;;;;;;;;;;5043908;28;20017;-70
2022/04/24 04:43:21;;;;;;;8.90;5.97;;;;;;;;;;5044978;28;20035;-70
2022/04/24 04:45:47;;;;;;;10.20;5.65;;;;;;;;;;5036674;28;20734;-70
2022/04/24 04:48:13;;;;;;;10.82;5.72;;;;;;;;;;5037019;28;20124;-70
2022/04/24 04:50:38;;;;;;;12.98;6.20;;;;;;;;;;5037587;28;20474;-70
2022/04/24 04:53:03;;;;;;;10.90;5.93;;;;;;;;;;5043501;28;20024;-70
2022/04/24 04:55:29;;;;;;;10.35;5.70;;;;;;;;;;5038947;28;20064;-70
2022/04/24 04:57:54;;;;;;;8.88;5.60;;;;;;;;;;5045660;28;20069;-70
2022/04/24 05:00:20;;;;;;;10.77;6.00;;;;;;;;;;5033464;28;20065;-71
2022/04/24 05:02:45;;;;;;;10.48;5.65;;;;;;;;;;5043429;28;20025;-71
2022/04/24 05:05:11;;;;;;;10.32;5.68;;;;;;;;;;5039179;28;20056;-70
2022/04/24 05:07:37;;;;;;;10.65;5.80;;;;;;;;;;5040097;28;20091;-70
2022/04/24 05:10:04;;;;;;;9.68;6.05;;;;;;;;;;5037749;28;20426;-71
2022/04/24 05:12:30;;;;;;;9.40;6.00;;;;;;;;;;5035980;28;20041;-70
2022/04/24 05:15:06;;;;;;;9.95;5.85;;;;;;;;;;5036169;28;20040;-70
2022/04/24 05:17:34;;;;;;;14.85;6.35;;;;;;;;;;5040101;28;21987;-70
2022/04/24 05:19:59;;;;;;;9.70;5.90;;;;;;;;;;5044037;28;20032;-70
2022/04/24 05:22:25;;;;;;;10.02;6.15;;;;;;;;;;5030259;28;20033;-70
2022/04/24 05:24:50;;;;;;;9.90;5.90;;;;;;;;;;5027234;28;20115;-70
2022/04/24 05:27:16;;;;;;;9.95;5.93;;;;;;;;;;5026066;28;20056;-70
2022/04/24 05:29:41;;;;;;;12.52;6.22;;;;;;;;;;5033672;28;20045;-71
2022/04/24 05:32:07;;;;;;;11.50;6.43;;;;;;;;;;5024330;28;20057;-71
2022/04/24 05:34:32;;;;;;;9.80;6.10;;;;;;;;;;5042111;28;20029;-70
2022/04/24 05:36:58;;;;;;;10.18;6.43;;;;;;;;;;5043144;28;20057;-70
2022/04/24 05:39:23;;;;;;;9.77;5.95;;;;;;;;;;5046723;28;20063;-71
2022/04/24 05:41:48;;;;;;;9.30;5.70;;;;;;;;;;5043688;28;20042;-70
2022/04/24 05:44:14;;;;;;;10.70;6.25;;;;;;;;;;5033882;28;20053;-71
2022/04/24 05:46:39;;;;;;;10.35;6.15;;;;;;;;;;5035594;28;20463;-70
2022/04/24 05:49:04;;;;;;;10.95;6.50;;;;;;;;;;5041668;28;20549;-71
2022/04/24 05:51:30;;;;;;;10.77;6.50;;;;;;;;;;5042082;28;20052;-71
2022/04/24 05:53:55;;;;;;;11.52;7.07;;;;;;;;;;5046995;28;20048;-71
2022/04/24 05:56:21;;;;;;;10.85;6.65;;;;;;;;;;5037463;28;20068;-71
2022/04/24 05:58:46;;;;;;;10.95;6.15;;;;;;;;;;5042120;28;20079;-71
2022/04/24 06:01:12;;;;;;;12.60;6.18;;;;;;;;;;5031972;28;20031;-70
2022/04/24 06:03:40;;;;;;;11.68;6.45;;;;;;;;;;5039992;28;20147;-70
2022/04/24 06:06:06;;;;;;;11.45;6.68;;;;;;;;;;5042232;28;20034;-71
2022/04/24 06:08:31;;;;;;;12.60;6.80;;;;;;;;;;5040727;28;20056;-70
2022/04/24 06:10:57;;;;;;;10.40;6.40;;;;;;;;;;5042082;28;20021;-71
2022/04/24 06:13:22;;;;;;;11.27;6.53;;;;;;;;;;5041393;28;20087;-70
2022/04/24 06:15:48;;;;;;;11.43;6.57;;;;;;;;;;5035285;28;20037;-70
2022/04/24 06:18:13;;;;;;;13.52;6.28;;;;;;;;;;5037745;28;20099;-70
2022/04/24 06:20:39;;;;;;;10.50;6.88;;;;;;;;;;5034024;28;20060;-71
2022/04/24 06:23:04;;;;;;;10.60;6.72;;;;;;;;;;5041336;28;20025;-71
2022/04/24 06:25:32;;;;;;;11.95;7.03;;;;;;;;;;5036889;28;20036;-70
2022/04/24 06:27:58;;;;;;;13.13;7.45;;;;;;;;;;5036684;28;20522;-70
2022/04/24 06:30:25;;;;;;;11.68;7.10;;;;;;;;;;5036198;28;20042;-71
2022/04/24 06:32:51;;;;;;;10.63;6.70;;;;;;;;;;5043490;28;20407;-71
2022/04/24 06:35:17;;;;;;;11.00;6.97;;;;;;;;;;5040744;28;20068;-70
2022/04/24 06:37:48;;;;;;;11.63;7.22;;;;;;;;;;5039051;28;20036;-70
2022/04/24 06:40:15;;;;;;;15.15;7.68;;;;;;;;;;5041021;28;20072;-70
2022/04/24 06:43:00;;;;;;;11.15;6.95;;;;;;;;;;5030128;28;20549;-71
2022/04/24 06:45:28;;;;;;;12.65;7.30;;;;;;;;;;5039967;28;20041;-71
2022/04/24 06:48:01;;;;;;;12.93;7.28;;;;;;;;;;5041777;28;20045;-73
2022/04/24 06:50:28;;;;;;;12.38;7.28;;;;;;;;;;5048228;28;20043;-72
2022/04/24 06:53:11;;;;;;;12.68;6.88;;;;;;;;;;5034633;28;20078;-71
2022/04/24 06:55:38;;;;;;;10.10;6.85;;;;;;;;;;5040582;28;20530;-73
2022/04/24 06:58:05;;;;;;;11.82;7.00;;;;;;;;;;5037741;28;20053;-72
2022/04/24 07:00:32;;;;;;;11.95;7.13;;;;;;;;;;5037247;28;20537;-73
2022/04/24 07:02:58;;;;;;;13.18;6.90;;;;;;;;;;5039478;28;20717;-70
2022/04/24 07:05:25;;;;;;;11.75;7.38;;;;;;;;;;5040833;28;20099;-70
2022/04/24 07:07:51;;;;;;;14.45;8.35;;;;;;;;;;5039551;28;20529;-70
2022/04/24 07:10:17;;;;;;;12.90;7.60;;;;;;;;;;5035752;28;20084;-70
2022/04/24 07:12:52;;;;;;;11.73;7.65;;;;;;;;;;5038531;28;20064;-70
2022/04/24 07:15:20;;;;;;;12.32;7.75;;;;;;;;;;5035470;28;20083;-70
2022/04/24 07:17:46;;;;;;;14.77;7.90;;;;;;;;;;5036061;28;20059;-70
2022/04/24 07:20:14;;;;;;;14.90;8.10;;;;;;;;;;5030206;28;20079;-70
2022/04/24 07:22:53;;;;;;;14.98;7.72;;;;;;;;;;5039600;28;20469;-71
2022/04/24 07:25:23;;;;;;;12.68;7.90;;;;;;;;;;5040890;28;20041;-70
2022/04/24 07:27:50;;;;;;;11.88;7.70;;;;;;;;;;5035994;28;20391;-70
2022/04/24 07:30:16;;;;;;;13.98;8.20;;;;;;;;;;5036080;28;20045;-70
2022/04/24 07:32:53;;;;;;;13.55;7.90;;;;;;;;;;5035025;28;20449;-70
2022/04/24 07:35:21;;;;;;;10.45;7.25;;;;;;;;;;5031030;28;20045;-70
2022/04/24 07:37:47;;;;;;;12.20;7.43;;;;;;;;;;4975015;28;20497;-70
2022/04/24 07:40:15;;;;;;;17.13;7.38;;;;;;;;;;4983254;28;20196;-70
2022/04/24 07:42:45;;;;;;;14.38;7.93;;;;;;;;;;4984798;28;20044;-71
2022/04/24 07:45:11;;;;;;;14.30;8.60;;;;;;;;;;5033980;28;20121;-70
2022/04/24 07:47:36;;;;;;;12.93;8.05;;;;;;;;;;5038389;28;20116;-70
2022/04/24 07:50:01;;;;;;;12.93;7.97;;;;;;;;;;5037647;28;20039;-70
2022/04/24 07:52:27;;;;;;;14.13;8.23;;;;;;;;;;5042526;28;20034;-71
2022/04/24 07:54:52;;;;;;;12.70;8.10;;;;;;;;;;5032522;28;20033;-70
2022/04/24 07:57:17;;;;;;;12.68;8.35;;;;;;;;;;5037191;28;20037;-70
2022/04/24 07:59:43;;;;;;;14.15;8.38;;;;;;;;;;5033837;28;20611;-70
2022/04/24 08:02:10;;;;;;;13.52;8.35;;;;;;;;;;5029294;28;20036;-70
2022/04/24 08:04:36;;;;;;;14.13;8.50;;;;;;;;;;5035227;28;20100;-70
2022/04/24 08:07:01;;;;;;;12.02;7.82;;;;;;;;;;5035644;28;20057;-71
2022/04/24 08:09:27;;;;;;;15.18;8.55;;;;;;;;;;5040739;28;20029;-70
2022/04/24 08:11:52;;;;;;;16.13;8.48;;;;;;;;;;5030675;28;20124;-70
2022/04/24 08:14:19;;;;;;;17.60;8.80;;;;;;;;;;5033559;28;20231;-70
2022/04/24 08:16:45;;;;;;;14.38;9.18;;;;;;;;;;5035752;28;20020;-70
2022/04/24 08:19:10;;;;;;;14.93;8.50;;;;;;;;;;5031713;28;20029;-70
2022/04/24 08:21:36;;;;;;;16.33;8.73;;;;;;;;;;5033847;28;20379;-70
2022/04/24 08:24:01;;;;;;;13.95;8.90;;;;;;;;;;5034326;28;20038;-70
2022/04/24 08:26:26;;;;;;;14.48;8.73;;;;;;;;;;5036121;28;20064;-70
2022/04/24 08:28:52;;;;;;;13.13;8.73;;;;;;;;;;5035520;28;20026;-70
2022/04/24 08:31:17;;;;;;;13.25;8.95;;;;;;;;;;5045050;28;20037;-70
2022/04/24 08:33:42;;;;;;;17.95;9.40;;;;;;;;;;5037686;28;20112;-70
2022/04/24 08:36:07;;;;;;;14.85;8.80;;;;;;;;;;5038540;28;20037;-70
2022/04/24 08:38:33;;;;;;;15.45;8.57;;;;;;;;;;5042826;28;20051;-70
2022/04/24 08:40:59;;;;;;;14.82;9.15;;;;;;;;;;5033710;28;20021;-70
2022/04/24 08:43:24;;;;;;;14.48;8.68;;;;;;;;;;5042024;28;20025;-70
2022/04/24 08:45:52;;;;;;;15.00;8.90;;;;;;;;;;5031373;28;20107;-70
2022/04/24 08:48:18;;;;;;;13.77;9.00;;;;;;;;;;5040206;28;20518;-70
2022/04/24 08:50:44;;;;;;;21.23;12.23;;;;;;;;;;5038104;28;20068;-70
2022/04/24 08:53:10;;;;;;;17.05;9.18;;;;;;;;;;5033673;28;20017;-70
2022/04/24 08:55:36;;;;;;;15.40;9.00;;;;;;;;;;5032023;28;20098;-70
2022/04/24 08:58:02;;;;;;;16.60;9.93;;;;;;;;;;5028403;28;20878;-70
2022/04/24 09:00:29;;;;;;;16.77;9.50;;;;;;;;;;5032622;28;20056;-70
2022/04/24 09:02:57;;;;;;;16.25;10.13;;;;;;;;;;5025464;28;20029;-70
2022/04/24 09:05:23;;;;;;;19.23;12.15;;;;;;;;;;5031399;28;20064;-70
2022/04/24 09:07:52;;;;;;;28.35;19.50;;;;;;;;;;5032207;28;20056;-70
2022/04/24 09:10:18;;;;;;;16.60;11.15;;;;;;;;;;5036346;28;20038;-70
2022/04/24 09:12:51;;;;;;;16.77;9.63;;;;;;;;;;5039365;28;20043;-70
2022/04/24 09:15:18;;;;;;;15.95;10.25;;;;;;;;;;5036389;28;20037;-70
2022/04/24 09:17:43;;;;;;;17.17;9.85;;;;;;;;;;5041134;28;20041;-70
2022/04/24 09:20:17;;;;;;;15.13;9.52;;;;;;;;;;5035444;28;20083;-70
2022/04/24 09:22:43;;;;;;;18.52;9.48;;;;;;;;;;5038740;28;20099;-70
2022/04/24 09:25:10;;;;;;;13.63;9.00;;;;;;;;;;5037457;28;20132;-70
2022/04/24 09:27:36;;;;;;;17.02;9.73;;;;;;;;;;5038791;28;20038;-70
2022/04/24 09:30:15;;;;;;;15.23;10.05;;;;;;;;;;5036213;28;20032;-70
2022/04/24 09:32:48;;;;;;;17.17;9.93;;;;;;;;;;5042987;28;20090;-70
2022/04/24 09:35:26;;;;;;;18.77;10.07;;;;;;;;;;5041889;28;20033;-70
2022/04/24 09:37:52;;;;;;;15.10;8.50;;;;;;;;;;5035490;28;20550;-70
2022/04/24 09:40:17;;;;;;;16.02;10.30;;;;;;;;;;5042491;28;20090;-69
2022/04/24 09:42:54;;;;;;;16.25;10.80;;;;;;;;;;5038213;28;20410;-70
2022/04/24 09:45:26;;;;;;;17.77;10.32;;;;;;;;;;5039281;28;20036;-70
2022/04/24 09:48:03;;;;;;;15.40;9.48;;;;;;;;;;5042717;28;20458;-70
2022/04/24 09:50:29;;;;;;;18.88;10.27;;;;;;;;;;5044666;28;20063;-70
2022/04/24 09:52:57;;;;;;;17.90;10.77;;;;;;;;;;5039769;28;20494;-70
2022/04/24 09:55:25;;;;;;;18.90;10.00;;;;;;;;;;5040865;28;20580;-70
2022/04/24 09:57:52;;;;;;;19.15;9.32;;;;;;;;;;5041836;28;20053;-70
2022/04/24 10:00:18;;;;;;;16.95;10.25;;;;;;;;;;5038910;28;20054;-70
2022/04/24 10:02:44;;;;;;;16.42;9.82;;;;;;;;;;5039897;28;20717;-70
2022/04/24 10:05:10;;;;;;;16.15;10.07;;;;;;;;;;5037034;28;20071;-70
2022/04/24 10:07:36;;;;;;;15.23;9.98;;;;;;;;;;5032059;28;20037;-69
2022/04/24 10:10:02;;;;;;;15.68;9.68;;;;;;;;;;5033629;28;20127;-70
2022/04/24 10:12:29;;;;;;;16.80;10.35;;;;;;;;;;5040698;28;20693;-71
2022/04/24 10:15:03;;;;;;;16.92;10.25;;;;;;;;;;5032369;28;20057;-70
2022/04/24 10:18:02;;;;;;;20.40;10.48;;;;;;;;;;5029711;28;20535;-70
2022/04/24 10:20:55;;;;;;;17.05;9.73;;;;;;;;;;5036751;28;20426;-70
2022/04/24 10:23:33;;;;;;;16.88;10.68;;;;;;;;;;5029922;28;20033;-70
2022/04/24 10:25:58;;;;;;;16.52;10.57;;;;;;;;;;5032901;28;20127;-70
2022/04/24 10:28:35;;;;;;;16.40;9.85;;;;;;;;;;5045111;28;20493;-70
2022/04/24 10:31:03;;;;;;;16.17;10.10;;;;;;;;;;5038443;28;20041;-70
2022/04/24 10:33:30;;;;;;;14.82;9.95;;;;;;;;;;5037297;28;20534;-70
2022/04/24 10:36:17;;;;;;;14.88;10.30;;;;;;;;;;5035899;28;20125;-70
2022/04/24 10:39:00;;;;;;;15.25;9.95;;;;;;;;;;5040945;28;20037;-70
2022/04/24 10:41:30;;;;;;;16.33;9.50;;;;;;;;;;5030736;28;20760;-70
2022/04/24 10:44:08;;;;;;;14.60;9.20;;;;;;;;;;5039983;28;20060;-70
2022/04/24 10:46:37;;;;;;;15.68;9.95;;;;;;;;;;5034875;28;20068;-70
2022/04/24 10:49:10;;;;;;;17.98;9.90;;;;;;;;;;5035641;28;20543;-70
2022/04/24 10:51:41;;;;;;;16.05;9.82;;;;;;;;;;5032144;28;20069;-70
2022/04/24 10:54:13;;;;;;;15.10;10.93;;;;;;;;;;5034816;28;20128;-70
2022/04/24 10:56:42;;;;;;;16.40;10.32;;;;;;;;;;5036676;28;20037;-70
2022/04/24 10:59:10;;;;;;;15.30;10.13;;;;;;;;;;5033335;28;20032;-70
2022/04/24 11:01:37;;;;;;;14.57;9.82;;;;;;;;;;5039642;28;20034;-70
2022/04/24 11:04:06;;;;;;;17.60;10.05;;;;;;;;;;5035321;28;20056;-71
2022/04/24 11:06:32;;;;;;;14.73;9.32;;;;;;;;;;5035862;28;20082;-71
2022/04/24 11:09:12;;;;;;;14.55;9.55;;;;;;;;;;5027491;28;20390;-71
2022/04/24 11:11:51;;;;;;;15.13;9.30;;;;;;;;;;5026170;28;21071;-71
2022/04/24 11:14:25;;;;;;;16.45;9.63;;;;;;;;;;5026312;28;20036;-71
2022/04/24 11:16:52;;;;;;;17.35;9.95;;;;;;;;;;5036158;28;20025;-72
2022/04/24 11:19:28;;;;;;;15.13;9.55;;;;;;;;;;5025704;28;20033;-72
2022/04/24 11:22:04;;;;;;;15.68;9.32;;;;;;;;;;5033712;28;20127;-72
2022/04/24 11:24:31;;;;;;;17.60;8.85;;;;;;;;;;5038936;28;20029;-72
2022/04/24 11:27:02;;;;;;;14.30;8.90;;;;;;;;;;5034216;28;20048;-72
2022/04/24 11:29:27;;;;;;;12.95;8.48;;;;;;;;;;5038324;28;20032;-72
2022/04/24 11:31:54;;;;;;;12.02;8.25;;;;;;;;;;5033950;28;20025;-72
2022/04/24 11:34:21;;;;;;;13.00;8.55;;;;;;;;;;5037617;28;20029;-72
2022/04/24 11:36:49;;;;;;;11.45;7.68;;;;;;;;;;5036684;28;20029;-72
2022/04/24 11:39:15;;;;;;;11.57;7.72;;;;;;;;;;5034112;28;20048;-72
2022/04/24 11:41:43;;;;;;;12.27;8.45;;;;;;;;;;5033608;28;20049;-72
2022/04/24 11:50:15;;;;;;;13.40;7.90;;;;;;;;;;5034460;28;20118;-71
2022/04/24 11:52:47;;;;;;;10.25;7.20;;;;;;;;;;5034637;28;20045;-71
2022/04/24 11:55:14;;;;;;;11.63;7.68;;;;;;;;;;5033261;28;20063;-71
2022/04/24 11:57:39;;;;;;;11.52;8.02;;;;;;;;;;5030350;28;20033;-71
2022/04/24 12:00:09;;;;;;;13.85;8.18;;;;;;;;;;5034549;28;20044;-71
2022/04/24 12:02:35;;;;;;;10.90;7.28;;;;;;;;;;5034056;28;20056;-71
2022/04/24 12:05:00;;;;;;;10.70;6.78;;;;;;;;;;5031933;28;20060;-71
2022/04/24 12:07:33;;;;;;;12.80;7.47;;;;;;;;;;5037898;28;20029;-71
2022/04/24 12:10:02;;;;;;;9.88;6.80;;;;;;;;;;5043389;28;20117;-71
2022/04/24 12:12:28;;;;;;;10.25;7.45;;;;;;;;;;5031753;28;20045;-71
2022/04/24 12:14:54;;;;;;;12.25;6.68;;;;;;;;;;5025525;28;20128;-73
2022/04/24 12:17:22;;;;;;;9.35;6.45;;;;;;;;;;5031404;28;20464;-72
2022/04/24 12:19:55;;;;;;;16.35;7.15;;;;;;;;;;5029669;28;20722;-72
2022/04/24 12:22:28;;;;;;;9.80;6.53;;;;;;;;;;5027605;28;20033;-72
2022/04/24 12:24:53;;;;;;;11.13;6.73;;;;;;;;;;5029153;28;20041;-73
2022/04/24 12:27:20;;;;;;;9.32;7.03;;;;;;;;;;5029919;28;20033;-72
2022/04/24 12:29:49;;;;;;;8.90;6.18;;;;;;;;;;5024697;28;20118;-74
2022/04/24 12:32:15;;;;;;;9.05;6.35;;;;;;;;;;5028897;28;20044;-72
2022/04/24 12:34:43;;;;;;;8.15;5.70;;;;;;;;;;5028873;28;20033;-72
2022/04/24 12:37:09;;;;;;;9.50;6.05;;;;;;;;;;5030657;28;20127;-72
2022/04/24 12:39:35;;;;;;;8.75;5.70;;;;;;;;;;5030779;28;20048;-71
2022/04/24 12:42:19;;;;;;;9.50;5.78;;;;;;;;;;5033056;28;20648;-71
2022/04/24 12:44:45;;;;;;;8.85;6.43;;;;;;;;;;5029753;28;20044;-72
2022/04/24 12:47:11;;;;;;;8.27;5.85;;;;;;;;;;5037870;28;20029;-71
2022/04/24 12:49:37;;;;;;;7.93;5.78;;;;;;;;;;5034235;28;20120;-71
2022/04/24 12:52:03;;;;;;;7.72;5.78;;;;;;;;;;5037026;28;20566;-71
2022/04/24 12:54:29;;;;;;;13.35;5.60;;;;;;;;;;5036291;28;20041;-70
2022/04/24 12:56:54;;;;;;;10.75;6.20;;;;;;;;;;5037220;28;20036;-71
2022/04/24 12:59:20;;;;;;;9.98;5.72;;;;;;;;;;5035239;28;20535;-75
2022/04/24 13:01:45;;;;;;;8.43;6.32;;;;;;;;;;5034532;28;20029;-73
2022/04/24 13:04:11;;;;;;;10.32;7.03;;;;;;;;;;5034289;28;20049;-71
2022/04/24 13:06:37;;;;;;;9.73;6.82;;;;;;;;;;5030112;28;20082;-68
2022/04/24 13:09:04;;;;;;;9.68;6.53;;;;;;;;;;5032530;28;20029;-69
2022/04/24 13:11:29;;;;;;;8.88;6.55;;;;;;;;;;5037839;28;20462;-68
2022/04/24 13:13:55;;;;;;;9.68;5.95;;;;;;;;;;5036449;28;20029;-68
2022/04/24 13:19:05;;;;;;;10.60;6.13;;;;;;;;;;5038462;28;20113;-69
2022/04/24 13:21:30;;;;;;;8.35;5.60;;;;;;;;;;5039278;28;20140;-68
2022/04/24 13:23:55;;;;;;;7.90;6.30;;;;;;;;;;5039020;28;20065;-68
2022/04/24 13:26:22;;;;;;;9.48;6.32;;;;;;;;;;5033763;28;20040;-69
2022/04/24 13:28:48;;;;;;;8.98;7.30;;;;;;;;;;5032233;28;20036;-68
2022/04/24 13:31:13;;;;;;;8.25;6.28;;;;;;;;;;5038551;28;20037;-66
2022/04/24 13:33:39;;;;;;;9.85;6.32;;;;;;;;;;5031326;28;20037;-66
2022/04/24 13:36:05;;;;;;;7.10;5.63;;;;;;;;;;5035206;28;20036;-67
2022/04/24 13:38:32;;;;;;;16.08;6.22;;;;;;;;;;5039358;28;20648;-68
2022/04/24 13:41:01;;;;;;;10.88;6.35;;;;;;;;;;5036527;28;20025;-68
2022/04/24 13:43:27;;;;;;;6.82;5.40;;;;;;;;;;5042106;28;20033;-68
2022/04/24 13:45:52;;;;;;;9.70;5.82;;;;;;;;;;5024743;28;20040;-70
2022/04/24 13:48:19;;;;;;;8.23;6.22;;;;;;;;;;5031900;28;20040;-70
2022/04/24 13:50:45;;;;;;;8.38;6.25;;;;;;;;;;5032309;28;20033;-69
2022/04/24 13:53:10;;;;;;;8.85;6.00;;;;;;;;;;5035030;28;20036;-68
2022/04/24 13:55:37;;;;;;;9.38;6.50;;;;;;;;;;5032803;28;20625;-67
2022/04/24 13:58:04;;;;;;;9.93;6.30;;;;;;;;;;5030419;28;20032;-69
2022/04/24 14:00:31;;;;;;;7.05;5.72;;;;;;;;;;5029340;28;20099;-68
2022/04/24 14:02:58;;;;;;;6.90;5.65;;;;;;;;;;5033848;28;20037;-69
2022/04/24 14:05:24;;;;;;;7.68;5.90;;;;;;;;;;5032082;28;20148;-67
2022/04/24 14:07:49;;;;;;;10.13;5.70;;;;;;;;;;5038977;28;20646;-68
2022/04/24 14:10:16;;;;;;;8.88;5.90;;;;;;;;;;5032688;28;20033;-68
2022/04/24 14:12:41;;;;;;;10.93;6.00;;;;;;;;;;5032103;28;20041;-73
2022/04/24 14:15:07;;;;;;;9.45;6.53;;;;;;;;;;5028908;28;20933;-71
2022/04/24 14:17:34;;;;;;;8.10;5.85;;;;;;;;;;5030547;28;20661;-71
2022/04/24 14:19:59;;;;;;;7.68;5.78;;;;;;;;;;5030341;28;20029;-71
2022/04/24 14:22:25;;;;;;;8.30;6.20;;;;;;;;;;5030618;28;21035;-71
2022/04/24 14:24:50;;;;;;;6.85;6.00;;;;;;;;;;5027793;28;20048;-72
2022/04/24 14:27:19;;;;;;;11.38;5.78;;;;;;;;;;5026173;28;20051;-70
2022/04/24 14:29:44;;;;;;;7.18;6.15;;;;;;;;;;5031976;28;20139;-68
2022/04/24 14:32:12;;;;;;;8.15;5.90;;;;;;;;;;5033650;28;20087;-70
2022/04/24 14:34:38;;;;;;;7.75;6.15;;;;;;;;;;5034348;28;20068;-73
2022/04/24 14:37:04;;;;;;;12.05;6.18;;;;;;;;;;5033817;28;20037;-73